Time;durP1;ratioP1;P1;durP2;ratioP2;P2;SDS_P1;SDS_P2;PMS_P1;PMS_P2;Temp;Humidity;BMP_temperature;BMP_pressure;BME280_temperature;BME280_humidity;BME280_pressure;Samples;Min_cycle;Max_cycle;Signal;HPM_P1;HPM_P2
2023/03/02 00:01:49;;;;;;;32.88;24.33;;;2.90;99.90;;;;;;4919097;28;95708;-30
2023/03/02 00:04:37;;;;;;;38.30;25.52;;;2.90;99.90;;;;;;4919772;28;95751;-31
2023/03/02 00:07:07;;;;;;;36.45;23.15;;;2.80;99.90;;;;;;4918978;28;94744;-27
2023/03/02 00:09:33;;;;;;;43.38;25.45;;;2.80;99.90;;;;;;4919693;28;94986;-27
2023/03/02 00:11:59;;;;;;;39.10;23.92;;;2.80;99.90;;;;;;4918532;28;94708;-30
2023/03/02 00:14:24;;;;;;;45.08;26.23;;;2.80;99.90;;;;;;4919450;28;94390;-27
2023/03/02 00:16:50;;;;;;;47.05;29.60;;;2.80;99.90;;;;;;4919252;28;93138;-27
2023/03/02 00:19:16;;;;;;;49.08;27.20;;;2.70;99.90;;;;;;4918703;28;94290;-27
2023/03/02 00:21:41;;;;;;;51.15;28.60;;;2.60;99.90;;;;;;4919398;28;94890;-30
2023/03/02 00:24:07;;;;;;;46.83;29.92;;;2.70;99.90;;;;;;4918641;28;93218;-29
2023/03/02 00:26:34;;;;;;;43.22;25.77;;;2.60;99.90;;;;;;4919226;28;92224;-28
2023/03/02 00:29:00;;;;;;;37.90;22.30;;;2.60;99.90;;;;;;4919357;28;95323;-26
2023/03/02 00:31:26;;;;;;;47.25;25.08;;;2.60;99.90;;;;;;4919429;28;95172;-31
2023/03/02 00:33:55;;;;;;;38.67;23.15;;;2.60;99.90;;;;;;4919288;28;94393;-29
2023/03/02 00:36:22;;;;;;;42.72;25.95;;;2.60;99.90;;;;;;4918689;28;95006;-29
2023/03/02 00:38:48;;;;;;;45.15;26.60;;;2.60;99.90;;;;;;4918509;28;95063;-31
2023/03/02 00:41:14;;;;;;;41.15;25.15;;;2.60;99.90;;;;;;4918745;28;95284;-28
2023/03/02 00:43:41;;;;;;;49.95;28.48;;;2.60;99.90;;;;;;4919361;28;93516;-27
2023/03/02 00:46:10;;;;;;;43.28;23.45;;;2.60;99.90;;;;;;4901437;28;93803;-29
2023/03/02 00:48:36;;;;;;;43.45;25.17;;;2.60;99.90;;;;;;4918371;28;96333;-28
2023/03/02 00:51:02;;;;;;;33.97;19.60;;;2.50;99.90;;;;;;4918531;28;94436;-26
2023/03/02 00:53:28;;;;;;;41.25;24.17;;;2.60;99.90;;;;;;4918750;28;94183;-26
2023/03/02 00:55:54;;;;;;;49.85;27.58;;;2.60;99.90;;;;;;4918435;28;94546;-30
2023/03/02 00:58:20;;;;;;;34.42;23.83;;;2.60;99.90;;;;;;4918828;28;95059;-30
2023/03/02 01:00:46;;;;;;;42.97;25.25;;;2.50;99.90;;;;;;4918884;28;92762;-26
2023/03/02 01:03:12;;;;;;;35.55;22.67;;;2.50;99.90;;;;;;4918232;28;94520;-31
2023/03/02 01:05:37;;;;;;;35.15;22.83;;;2.50;99.90;;;;;;4918378;28;95285;-29
2023/03/02 01:08:03;;;;;;;40.92;23.08;;;2.40;99.90;;;;;;4918081;28;95194;-27
2023/03/02 01:10:33;;;;;;;34.40;19.70;;;2.40;99.90;;;;;;4918935;28;95169;-29
2023/03/02 01:12:59;;;;;;;36.90;21.23;;;2.30;99.90;;;;;;4918129;28;93021;-29
2023/03/02 01:15:24;;;;;;;35.08;18.90;;;2.30;99.90;;;;;;4918143;28;95259;-29
2023/03/02 01:17:50;;;;;;;36.25;22.48;;;2.40;99.90;;;;;;4917720;28;96240;-28
2023/03/02 01:20:16;;;;;;;43.80;22.17;;;2.30;99.90;;;;;;4918411;28;95379;-28
2023/03/02 01:22:43;;;;;;;36.95;22.73;;;2.30;99.90;;;;;;4917750;28;94213;-26
2023/03/02 01:25:10;;;;;;;45.80;22.48;;;2.30;99.90;;;;;;4918168;28;93053;-32
2023/03/02 01:27:36;;;;;;;41.25;23.13;;;2.30;99.90;;;;;;4918108;28;94380;-27
2023/03/02 01:30:02;;;;;;;36.38;24.55;;;2.30;99.90;;;;;;4917435;28;94581;-28
2023/03/02 01:32:28;;;;;;;35.58;23.45;;;2.20;99.90;;;;;;4918616;28;93318;-29
2023/03/02 01:34:53;;;;;;;41.42;24.55;;;2.30;99.90;;;;;;4918045;28;93593;-28
2023/03/02 01:37:21;;;;;;;30.88;19.38;;;2.20;99.90;;;;;;4918102;28;94666;-31
2023/03/02 01:39:48;;;;;;;27.93;15.97;;;2.30;99.90;;;;;;4900889;28;94501;-30
2023/03/02 01:42:13;;;;;;;36.83;18.88;;;2.20;99.90;;;;;;4917350;28;95058;-30
2023/03/02 01:44:48;;;;;;;33.10;19.90;;;2.20;99.90;;;;;;4917556;28;92336;-27
2023/03/02 01:47:17;;;;;;;31.73;21.85;;;2.20;99.90;;;;;;4916501;28;95242;-26
2023/03/02 01:49:48;;;;;;;39.20;19.27;;;2.10;99.90;;;;;;4917817;28;94112;-29
2023/03/02 01:52:14;;;;;;;41.58;24.52;;;2.10;99.90;;;;;;4917993;28;93309;-32
2023/03/02 01:54:41;;;;;;;35.13;21.65;;;2.10;99.90;;;;;;4917710;28;94304;-27
2023/03/02 01:57:07;;;;;;;37.00;21.35;;;2.10;99.90;;;;;;4916645;28;95575;-31
2023/03/02 01:59:35;;;;;;;33.20;20.90;;;2.00;99.90;;;;;;4901184;28;94323;-26
2023/03/02 02:02:05;;;;;;;24.47;16.07;;;2.00;99.90;;;;;;4917781;28;92920;-30
2023/03/02 02:04:36;;;;;;;31.23;18.52;;;2.00;99.90;;;;;;4917837;28;94176;-29
2023/03/02 02:07:04;;;;;;;26.70;16.02;;;2.00;99.90;;;;;;4916292;28;95238;-28
2023/03/02 02:09:32;;;;;;;;;;;1.90;99.90;;;;;;4917845;28;95562;-29
2023/03/02 02:11:58;;;;;;;29.42;19.17;;;1.80;99.90;;;;;;4918967;28;92790;-31
2023/03/02 02:14:23;;;;;;;35.03;19.58;;;1.80;99.90;;;;;;4918069;28;93880;-28
2023/03/02 02:16:50;;;;;;;30.55;19.65;;;1.80;99.90;;;;;;4917350;28;94803;-30
2023/03/02 02:19:21;;;;;;;32.75;19.30;;;1.80;99.90;;;;;;4916965;28;94481;-27
2023/03/02 02:21:47;;;;;;;34.10;21.92;;;1.80;99.90;;;;;;4917420;28;94802;-27
2023/03/02 02:24:30;;;;;;;35.22;21.52;;;1.80;99.90;;;;;;4917529;28;93178;-30
2023/03/02 02:26:56;;;;;;;33.78;17.92;;;1.80;99.90;;;;;;4916835;28;94976;-27
2023/03/02 02:29:45;;;;;;;36.55;22.77;;;1.70;99.90;;;;;;4917386;28;95283;-26
2023/03/02 02:32:14;;;;;;;31.98;17.42;;;1.80;99.90;;;;;;4916232;28;94389;-28
2023/03/02 02:34:42;;;;;;;33.03;19.13;;;1.80;99.90;;;;;;4916896;28;93253;-29
2023/03/02 02:37:12;;;;;;;;;;;1.80;99.90;;;;;;4917775;28;95192;-27
2023/03/02 02:39:43;;;;;;;30.63;18.73;;;1.80;99.90;;;;;;4918016;28;93695;-29
2023/03/02 02:42:20;;;;;;;32.75;18.17;;;1.70;99.90;;;;;;4917802;28;93174;-30
2023/03/02 02:44:46;;;;;;;32.05;18.45;;;1.70;99.90;;;;;;4917340;28;93340;-31
2023/03/02 02:47:20;;;;;;;31.40;19.42;;;1.70;99.90;;;;;;4916587;28;96604;-30
2023/03/02 02:49:49;;;;;;;32.38;20.30;;;1.70;99.90;;;;;;4917625;28;95416;-31
2023/03/02 02:52:16;;;;;;;;;;;1.70;99.90;;;;;;4916736;28;95340;-27
2023/03/02 02:54:45;;;;;;;34.50;19.17;;;1.60;99.90;;;;;;4918759;28;93741;-28
2023/03/02 02:57:12;;;;;;;43.60;21.27;;;1.60;99.90;;;;;;4915944;28;95742;-29
2023/03/02 02:59:45;;;;;;;33.17;20.65;;;1.60;99.90;;;;;;4919089;28;95512;-29
2023/03/02 03:02:25;;;;;;;31.27;19.05;;;1.70;99.90;;;;;;4920171;28;94135;-28
2023/03/02 03:04:51;;;;;;;37.80;20.98;;;1.70;99.90;;;;;;4920959;28;93938;-28
2023/03/02 03:07:22;;;;;;;47.65;22.05;;;1.50;99.90;;;;;;4919733;28;93999;-28
2023/03/02 03:09:54;;;;;;;28.00;18.17;;;1.60;99.90;;;;;;4920308;28;94565;-27
2023/03/02 03:12:22;;;;;;;36.60;22.27;;;1.60;99.90;;;;;;4920753;28;94453;-27
2023/03/02 03:14:49;;;;;;;33.13;19.27;;;1.60;99.90;;;;;;4903152;28;93784;-33
2023/03/02 03:17:14;;;;;;;42.35;22.35;;;1.60;99.90;;;;;;4919386;28;94795;-27
2023/03/02 03:19:42;;;;;;;56.50;26.02;;;1.50;99.90;;;;;;4920904;28;93324;-29
2023/03/02 03:22:13;;;;;;;45.55;20.85;;;1.50;99.90;;;;;;4919704;28;94491;-26
2023/03/02 03:24:40;;;;;;;93.07;28.02;;;1.50;99.90;;;;;;4920595;28;92110;-28
2023/03/02 03:27:08;;;;;;;152.10;30.23;;;1.50;99.90;;;;;;4920025;28;94289;-28
2023/03/02 03:29:35;;;;;;;57.03;24.60;;;1.40;99.90;;;;;;4919742;28;94266;-29
2023/03/02 03:32:02;;;;;;;129.32;31.45;;;1.40;99.90;;;;;;4919976;28;92891;-27
2023/03/02 03:34:29;;;;;;;59.78;22.73;;;1.40;99.90;;;;;;4918042;28;93496;-28
2023/03/02 03:37:00;;;;;;;112.32;24.85;;;1.40;99.90;;;;;;4919324;28;94723;-28
2023/03/02 03:39:30;;;;;;;159.48;32.38;;;1.50;99.90;;;;;;4920021;28;94383;-28
2023/03/02 03:41:55;;;;;;;270.50;44.83;;;1.50;99.90;;;;;;4920379;28;93503;-26
2023/03/02 03:44:21;;;;;;;149.38;36.75;;;1.40;99.90;;;;;;4919857;28;94602;-30
2023/03/02 03:46:47;;;;;;;292.50;46.92;;;1.40;99.90;;;;;;4919204;28;95206;-27
2023/03/02 03:49:13;;;;;;;308.23;49.13;;;1.30;99.90;;;;;;4919021;28;95642;-27
2023/03/02 03:51:38;;;;;;;181.30;36.90;;;1.30;99.90;;;;;;4920178;28;94666;-31
2023/03/02 03:54:07;;;;;;;113.47;27.95;;;1.30;99.90;;;;;;4919525;28;94032;-27
2023/03/02 03:56:43;;;;;;;176.10;40.33;;;1.30;99.90;;;;;;4919999;28;92918;-29
2023/03/02 03:59:12;;;;;;;150.73;36.75;;;1.30;99.90;;;;;;4918846;28;94850;-27
2023/03/02 04:01:51;;;;;;;190.88;40.80;;;1.30;99.90;;;;;;4919352;28;93624;-31
2023/03/02 04:04:21;;;;;;;208.07;41.38;;;1.30;99.90;;;;;;4919449;28;93577;-31
2023/03/02 04:06:47;;;;;;;122.85;31.13;;;1.20;99.90;;;;;;4919004;28;93448;-29
2023/03/02 04:09:14;;;;;;;112.47;29.35;;;1.20;99.90;;;;;;4919134;28;94610;-28
2023/03/02 04:11:45;;;;;;;174.48;33.70;;;1.30;99.90;;;;;;4917915;28;95400;-29
2023/03/02 04:14:12;;;;;;;204.30;41.13;;;1.20;99.90;;;;;;4919418;28;94943;-26
2023/03/02 04:16:38;;;;;;;169.82;38.58;;;1.20;99.90;;;;;;4919260;28;94725;-26
2023/03/02 04:19:09;;;;;;;99.82;33.70;;;1.20;99.90;;;;;;4918981;28;94125;-30
2023/03/02 04:21:40;;;;;;;261.67;48.38;;;1.20;99.90;;;;;;4918123;28;94741;-30
2023/03/02 04:24:07;;;;;;;206.23;41.80;;;1.20;99.90;;;;;;4918723;28;94421;-28
2023/03/02 04:26:33;;;;;;;228.70;46.03;;;1.30;99.90;;;;;;4919843;28;94595;-31
2023/03/02 04:29:00;;;;;;;337.80;57.80;;;1.20;99.90;;;;;;4918066;28;94691;-29
2023/03/02 04:31:26;;;;;;;320.77;58.05;;;1.20;99.90;;;;;;4919408;28;93213;-28
2023/03/02 04:33:52;;;;;;;698.65;95.85;;;1.10;99.90;;;;;;4918923;28;94220;-29
2023/03/02 04:36:18;;;;;;;368.42;59.17;;;1.10;99.90;;;;;;4917893;28;95467;-29
2023/03/02 04:38:44;;;;;;;390.20;68.68;;;1.20;99.90;;;;;;4918129;28;95301;-28
2023/03/02 04:41:10;;;;;;;289.15;54.08;;;1.10;99.90;;;;;;4919399;28;92616;-29
2023/03/02 04:43:36;;;;;;;438.10;71.75;;;1.10;99.90;;;;;;4924770;28;93602;-28
2023/03/02 04:46:01;;;;;;;267.83;54.78;;;1.10;99.90;;;;;;4938334;28;94034;-31
2023/03/02 04:48:28;;;;;;;366.30;66.18;;;1.20;99.90;;;;;;4920191;28;94309;-29
2023/03/02 04:50:54;;;;;;;367.15;67.82;;;1.10;99.90;;;;;;4937791;28;92578;-28
2023/03/02 04:53:20;;;;;;;439.67;77.95;;;1.10;99.90;;;;;;4938806;28;92861;-28
2023/03/02 04:55:46;;;;;;;597.28;96.68;;;1.10;99.90;;;;;;4937802;28;95113;-30
2023/03/02 04:58:11;;;;;;;450.52;76.05;;;1.10;99.90;;;;;;4938034;28;94999;-27
2023/03/02 05:00:37;;;;;;;492.15;89.80;;;1.10;99.90;;;;;;4937664;28;94460;-29
2023/03/02 05:03:04;;;;;;;282.13;57.33;;;1.10;99.90;;;;;;4937293;28;92763;-28
2023/03/02 05:05:30;;;;;;;397.60;70.43;;;1.10;99.90;;;;;;4937632;28;93986;-30
2023/03/02 05:07:57;;;;;;;180.07;42.70;;;1.20;99.90;;;;;;4937671;28;94662;-28
2023/03/02 05:10:23;;;;;;;359.80;69.88;;;1.20;99.90;;;;;;4938215;28;92136;-28
2023/03/02 05:13:03;;;;;;;371.17;60.50;;;1.20;99.90;;;;;;4938359;28;92952;-26
2023/03/02 05:15:35;;;;;;;338.77;61.35;;;1.20;99.90;;;;;;4937577;28;94283;-29
2023/03/02 05:18:01;;;;;;;359.95;65.25;;;1.20;99.90;;;;;;4938149;28;94833;-26
2023/03/02 05:20:29;;;;;;;202.43;50.42;;;1.10;99.90;;;;;;4938198;28;93173;-28
2023/03/02 05:22:56;;;;;;;149.07;40.45;;;1.10;99.90;;;;;;4938086;28;92321;-27
2023/03/02 05:25:23;;;;;;;165.43;42.78;;;1.20;99.90;;;;;;4936726;28;95797;-29
2023/03/02 05:27:48;;;;;;;222.55;51.42;;;1.20;99.90;;;;;;4937228;28;94633;-29
2023/03/02 05:30:14;;;;;;;263.45;52.78;;;1.10;99.90;;;;;;4937822;28;93000;-27
2023/03/02 05:32:40;;;;;;;186.10;40.05;;;1.10;99.90;;;;;;4937087;28;94280;-26
2023/03/02 05:35:06;;;;;;;238.20;55.97;;;1.10;99.90;;;;;;4937860;28;94670;-32
2023/03/02 05:37:32;;;;;;;260.13;49.78;;;1.10;99.90;;;;;;4937096;28;97398;-28
2023/03/02 05:39:57;;;;;;;128.23;37.63;;;1.20;99.90;;;;;;4937701;28;93176;-29
2023/03/02 05:42:23;;;;;;;161.52;39.20;;;1.20;99.90;;;;;;4928979;28;92014;-29
2023/03/02 05:44:49;;;;;;;135.85;40.53;;;1.20;99.90;;;;;;4917543;28;94098;-28
2023/03/02 05:47:14;;;;;;;120.63;33.15;;;1.10;99.90;;;;;;4918203;28;94408;-28
2023/03/02 05:49:40;;;;;;;317.45;47.97;;;0.90;99.90;;;;;;4917434;28;94596;-28
2023/03/02 05:52:06;;;;;;;178.95;37.30;;;0.90;99.90;;;;;;4916746;28;93948;-28
2023/03/02 05:54:31;;;;;;;274.35;44.50;;;0.90;99.90;;;;;;4918095;28;94675;-29
2023/03/02 05:56:57;;;;;;;181.00;41.15;;;0.90;99.90;;;;;;4917193;28;94860;-30
2023/03/02 05:59:23;;;;;;;262.77;43.30;;;0.80;99.90;;;;;;4918058;28;92113;-26
2023/03/02 06:01:49;;;;;;;150.77;33.20;;;0.90;99.90;;;;;;4917541;28;93506;-27
2023/03/02 06:04:15;;;;;;;177.57;37.70;;;0.90;99.90;;;;;;4917728;28;94970;-28
2023/03/02 06:06:40;;;;;;;160.73;33.80;;;0.90;99.90;;;;;;4917802;28;94663;-27
2023/03/02 06:09:06;;;;;;;129.63;30.20;;;0.80;99.90;;;;;;4918029;28;93090;-27
2023/03/02 06:11:32;;;;;;;160.63;34.78;;;0.90;99.90;;;;;;4918195;28;94343;-26
2023/03/02 06:13:57;;;;;;;124.35;27.75;;;0.90;99.90;;;;;;4916289;28;95935;-29
2023/03/02 06:16:23;;;;;;;144.55;32.10;;;0.90;99.90;;;;;;4918063;28;95465;-29
2023/03/02 06:18:48;;;;;;;123.35;31.48;;;0.80;99.90;;;;;;4916883;28;92825;-29
2023/03/02 06:21:14;;;;;;;108.07;28.13;;;0.80;99.90;;;;;;4917986;28;93621;-27
2023/03/02 06:23:40;;;;;;;162.25;38.97;;;0.80;99.90;;;;;;4917812;28;95149;-27
2023/03/02 06:26:11;;;;;;;174.80;34.25;;;0.90;99.90;;;;;;4916989;28;94590;-29
2023/03/02 06:28:38;;;;;;;143.45;28.35;;;0.90;99.90;;;;;;4917574;28;93818;-28
2023/03/02 06:31:03;;;;;;;81.63;27.08;;;0.90;99.90;;;;;;4917667;28;93791;-27
2023/03/02 06:33:29;;;;;;;170.95;39.50;;;0.90;99.90;;;;;;4916377;28;95017;-29
2023/03/02 06:35:55;;;;;;;162.30;38.72;;;0.90;99.90;;;;;;4899156;28;94527;-31
2023/03/02 06:38:22;;;;;;;171.98;35.95;;;0.90;99.90;;;;;;4916617;28;95092;-30
2023/03/02 06:40:47;;;;;;;155.02;31.80;;;0.90;99.90;;;;;;4917088;28;94176;-32
2023/03/02 06:43:13;;;;;;;133.57;33.13;;;0.90;99.90;;;;;;4916834;28;93124;-31
2023/03/02 06:45:39;;;;;;;118.68;31.33;;;0.90;99.90;;;;;;4916930;28;94913;-29
2023/03/02 06:48:06;;;;;;;116.00;32.53;;;1.00;99.90;;;;;;4916914;28;94567;-27
2023/03/02 06:50:32;;;;;;;250.43;45.60;;;1.00;99.90;;;;;;4917421;28;93792;-31
2023/03/02 06:52:58;;;;;;;175.32;48.08;;;1.00;99.90;;;;;;4916663;28;94547;-30
2023/03/02 06:55:23;;;;;;;78.43;24.80;;;1.00;99.90;;;;;;4916620;28;94372;-31
2023/03/02 06:57:49;;;;;;;116.85;29.95;;;1.10;99.90;;;;;;4917337;28;92249;-29
2023/03/02 07:00:16;;;;;;;150.32;38.58;;;1.10;99.90;;;;;;4916417;28;93745;-28
2023/03/02 07:02:45;;;;;;;139.73;30.95;;;1.10;99.90;;;;;;4916017;28;95896;-32
2023/03/02 07:05:11;;;;;;;164.13;31.73;;;1.10;99.90;;;;;;4928375;28;95250;-28
2023/03/02 07:07:37;;;;;;;225.77;48.30;;;1.10;99.90;;;;;;4928179;28;93917;-29
2023/03/02 07:10:05;;;;;;;218.63;46.50;;;1.10;99.90;;;;;;4922507;28;92782;-28
2023/03/02 07:12:31;;;;;;;69.77;23.83;;;1.10;99.90;;;;;;4928831;28;94800;-31
2023/03/02 07:14:56;;;;;;;126.82;34.13;;;1.10;99.90;;;;;;4925781;28;94850;-28
2023/03/02 07:17:22;;;;;;;152.02;31.77;;;1.20;99.90;;;;;;4930129;28;94683;-32
2023/03/02 07:19:48;;;;;;;267.77;50.95;;;1.10;99.90;;;;;;4928752;28;93706;-29
2023/03/02 07:22:13;;;;;;;197.65;38.72;;;1.10;99.90;;;;;;4925964;28;95014;-30
2023/03/02 07:24:39;;;;;;;324.55;51.83;;;1.10;99.90;;;;;;4922875;28;94407;-27
2023/03/02 07:27:04;;;;;;;130.25;32.17;;;1.10;99.90;;;;;;4919142;28;95400;-28
2023/03/02 07:29:30;;;;;;;141.15;34.90;;;1.10;99.90;;;;;;4922867;28;94762;-30
2023/03/02 07:31:58;;;;;;;78.78;22.98;;;1.10;99.90;;;;;;4919793;28;94935;-31
2023/03/02 07:34:25;;;;;;;;;;;1.20;99.90;;;;;;4923006;28;94567;-30
2023/03/02 07:36:51;;;;;;;242.63;46.75;;;1.10;99.90;;;;;;4921603;28;92225;-28
2023/03/02 07:39:16;;;;;;;252.85;50.95;;;1.00;99.90;;;;;;4920870;28;93193;-28
2023/03/02 07:41:42;;;;;;;242.40;40.22;;;1.00;99.90;;;;;;4920171;28;95427;-29
2023/03/02 07:44:08;;;;;;;202.10;37.30;;;1.00;99.90;;;;;;4916831;28;94227;-30
2023/03/02 07:46:33;;;;;;;166.10;35.55;;;1.10;99.90;;;;;;4920211;28;92155;-31
2023/03/02 07:48:59;;;;;;;214.20;37.85;;;1.10;99.90;;;;;;4919731;28;93936;-30
2023/03/02 07:51:25;;;;;;;298.27;47.50;;;1.10;99.90;;;;;;4919077;28;95682;-27
2023/03/02 07:53:50;;;;;;;213.13;41.17;;;1.00;99.90;;;;;;4918594;28;95945;-27
2023/03/02 07:56:17;;;;;;;276.15;45.40;;;1.10;99.90;;;;;;4920322;28;94484;-32
2023/03/02 07:58:43;;;;;;;196.90;39.33;;;1.10;99.90;;;;;;4920019;28;93938;-29
2023/03/02 08:01:08;;;;;;;144.55;31.98;;;1.10;99.90;;;;;;4919484;28;94900;-31
2023/03/02 08:03:35;;;;;;;258.95;37.25;;;1.10;99.90;;;;;;4919168;28;94533;-28
2023/03/02 08:06:05;;;;;;;222.05;35.50;;;1.10;99.90;;;;;;4919075;28;93381;-26
2023/03/02 08:08:31;;;;;;;166.75;34.15;;;1.00;99.90;;;;;;4919657;28;92359;-30
2023/03/02 08:11:07;;;;;;;138.80;30.83;;;1.10;99.90;;;;;;4920076;28;94881;-27
2023/03/02 08:13:33;;;;;;;66.60;22.45;;;1.10;99.90;;;;;;4919500;28;94983;-29
2023/03/02 08:16:03;;;;;;;131.43;30.45;;;1.20;99.90;;;;;;4925914;28;94407;-27
2023/03/02 08:18:29;;;;;;;221.35;36.03;;;1.10;99.90;;;;;;4938616;28;93814;-29
2023/03/02 08:20:55;;;;;;;116.30;26.17;;;1.20;99.90;;;;;;4938075;28;95157;-30
2023/03/02 08:23:21;;;;;;;189.82;40.30;;;1.20;99.90;;;;;;4938856;28;94069;-28
2023/03/02 08:25:47;;;;;;;235.20;39.95;;;1.20;99.90;;;;;;4937887;28;94194;-28
2023/03/02 08:28:13;;;;;;;225.73;40.35;;;1.20;99.90;;;;;;4938832;28;93239;-31
2023/03/02 08:30:39;;;;;;;114.97;30.73;;;1.10;99.90;;;;;;4937947;28;94800;-29
2023/03/02 08:33:04;;;;;;;269.05;41.58;;;1.10;99.90;;;;;;4939329;28;94136;-28
2023/03/02 08:35:30;;;;;;;200.45;36.10;;;1.10;99.90;;;;;;4922662;28;92940;-28
2023/03/02 08:37:56;;;;;;;37.40;16.05;;;1.20;99.90;;;;;;4917163;28;93281;-29
2023/03/02 08:40:21;;;;;;;248.43;42.30;;;1.20;99.90;;;;;;4919558;28;95606;-28
2023/03/02 08:42:48;;;;;;;123.20;29.20;;;1.20;99.90;;;;;;4919416;28;94949;-27
2023/03/02 08:45:14;;;;;;;137.55;25.45;;;1.20;99.90;;;;;;4917589;28;92815;-27
2023/03/02 08:47:40;;;;;;;110.93;25.63;;;1.40;99.90;;;;;;4917063;28;93404;-28
2023/03/02 08:50:06;;;;;;;103.68;23.90;;;1.40;99.90;;;;;;4914586;28;94979;-32
2023/03/02 08:52:33;;;;;;;63.03;25.40;;;1.40;99.90;;;;;;4920061;28;95174;-31
2023/03/02 08:54:59;;;;;;;227.23;40.00;;;1.40;99.90;;;;;;4921434;28;93068;-29
2023/03/02 08:57:24;;;;;;;118.68;31.98;;;1.20;99.90;;;;;;4923337;28;94490;-28
2023/03/02 08:59:51;;;;;;;160.05;37.58;;;1.30;99.90;;;;;;4920717;28;94755;-29
2023/03/02 09:02:16;;;;;;;240.95;44.25;;;1.40;99.90;;;;;;4924321;28;94770;-28
2023/03/02 09:04:42;;;;;;;216.07;39.00;;;1.30;99.90;;;;;;4920377;28;94585;-29
2023/03/02 09:07:08;;;;;;;251.23;35.40;;;1.40;99.90;;;;;;4922653;28;93705;-29
2023/03/02 09:09:33;;;;;;;171.52;36.58;;;1.40;99.90;;;;;;4903977;28;95266;-29
2023/03/02 09:11:59;;;;;;;124.05;29.25;;;1.40;99.90;;;;;;4921432;28;96926;-28
2023/03/02 09:14:26;;;;;;;195.57;39.50;;;1.50;99.90;;;;;;4922974;28;93542;-30
2023/03/02 09:16:52;;;;;;;75.50;22.88;;;1.50;99.90;;;;;;4920361;28;93574;-30
2023/03/02 09:19:18;;;;;;;169.57;34.70;;;1.50;99.90;;;;;;4924460;28;94231;-28
2023/03/02 09:21:44;;;;;;;92.57;27.75;;;1.50;99.90;;;;;;4920731;28;94835;-28
2023/03/02 09:24:10;;;;;;;116.43;27.30;;;1.50;99.90;;;;;;4923213;28;93527;-30
2023/03/02 09:26:37;;;;;;;171.80;36.30;;;1.50;99.90;;;;;;4920214;28;94704;-30
2023/03/02 09:29:04;;;;;;;231.90;39.83;;;1.60;99.90;;;;;;4920989;28;95209;-31
2023/03/02 09:31:29;;;;;;;316.83;51.90;;;1.60;99.90;;;;;;4922420;28;94234;-31
2023/03/02 09:33:55;;;;;;;170.27;34.58;;;1.60;99.90;;;;;;4919728;28;94061;-30
2023/03/02 09:36:24;;;;;;;107.32;27.65;;;1.70;99.90;;;;;;4924696;28;93127;-31
2023/03/02 09:38:50;;;;;;;45.20;15.55;;;1.70;99.90;;;;;;4919746;28;94778;-28
2023/03/02 09:41:18;;;;;;;139.02;29.15;;;1.60;99.90;;;;;;4922954;28;94324;-27
2023/03/02 09:44:03;;;;;;;;;;;1.70;99.90;;;;;;4916308;28;94401;-27
2023/03/02 09:46:42;;;;;;;122.90;30.48;;;1.80;99.90;;;;;;4918269;28;91491;-29
2023/03/02 09:49:37;;;;;;;120.68;37.25;;;1.70;99.90;;;;;;4915985;28;94363;-32
2023/03/02 09:52:18;;;;;;;160.88;28.85;;;1.70;99.90;;;;;;4915506;28;94732;-27
2023/03/02 09:54:44;;;;;;;181.02;42.13;;;1.80;99.90;;;;;;4915183;28;95103;-30
2023/03/02 09:57:27;;;;;;;55.47;22.73;;;1.90;99.90;;;;;;4915292;28;92931;-30
2023/03/02 09:59:58;;;;;;;108.28;27.98;;;1.90;99.90;;;;;;4915272;28;95605;-30
2023/03/02 10:02:53;;;;;;;84.13;26.15;;;1.90;99.90;;;;;;4916904;28;94653;-27
2023/03/02 10:08:26;;;;;;;97.30;24.13;;;1.90;99.90;;;;;;4930356;28;93529;-31
2023/03/02 10:11:06;;;;;;;64.75;22.52;;;1.90;99.90;;;;;;4934224;28;94598;-30
2023/03/02 10:13:42;;;;;;;61.42;23.20;;;1.90;99.90;;;;;;4934846;28;94665;-33
2023/03/02 10:16:28;;;;;;;76.10;22.30;;;2.00;99.90;;;;;;4933661;28;93400;-28
2023/03/02 10:19:15;;;;;;;41.40;22.52;;;1.90;99.90;;;;;;4930615;28;94216;-30
2023/03/02 10:21:46;;;;;;;45.95;24.27;;;2.00;99.90;;;;;;4933903;28;95695;-28
2023/03/02 10:24:35;;;;;;;48.58;20.45;;;2.10;99.90;;;;;;4934264;28;95569;-28
2023/03/02 10:27:16;;;;;;;64.82;22.75;;;2.20;99.90;;;;;;4934511;28;92654;-31
2023/03/02 10:29:48;;;;;;;58.72;23.88;;;2.20;99.90;;;;;;4934427;28;93091;-29
2023/03/02 10:32:18;;;;;;;67.30;26.58;;;2.20;99.90;;;;;;4934402;28;95047;-30
2023/03/02 10:34:44;;;;;;;87.72;27.90;;;2.20;99.90;;;;;;4934526;28;95530;-28
2023/03/02 10:37:17;;;;;;;59.03;25.80;;;2.20;99.90;;;;;;4934444;28;93757;-27
2023/03/02 10:39:43;;;;;;;38.03;22.13;;;2.20;99.90;;;;;;4935403;28;93765;-28
2023/03/02 10:42:15;;;;;;;39.20;23.00;;;2.20;99.90;;;;;;4934148;28;95250;-31
2023/03/02 10:44:51;;;;;;;57.70;25.20;;;2.30;99.90;;;;;;4937400;28;94403;-29
2023/03/02 10:47:28;;;;;;;41.88;20.92;;;2.30;99.90;;;;;;4934597;28;94701;-28
2023/03/02 10:49:55;;;;;;;60.47;25.23;;;2.40;99.90;;;;;;4934430;28;93539;-30
2023/03/02 10:52:24;;;;;;;36.88;23.67;;;2.30;99.90;;;;;;4934346;28;93923;-31
2023/03/02 10:55:05;;;;;;;40.83;26.48;;;2.40;99.90;;;;;;4933895;28;94313;-28
2023/03/02 10:57:39;;;;;;;32.58;21.77;;;2.40;99.90;;;;;;4935520;28;94664;-29
2023/03/02 11:00:13;;;;;;;28.52;15.23;;;2.50;99.90;;;;;;4933811;28;92512;-29
2023/03/02 11:02:52;;;;;;;36.22;23.45;;;2.60;99.90;;;;;;4917084;28;94775;-32
2023/03/02 11:05:31;;;;;;;36.88;20.52;;;2.60;99.90;;;;;;4934173;28;94589;-30
2023/03/02 11:08:03;;;;;;;38.30;23.38;;;2.70;99.90;;;;;;4934300;28;93883;-26
2023/03/02 11:10:36;;;;;;;41.58;24.80;;;2.80;99.90;;;;;;4934701;28;93099;-27
2023/03/02 11:13:35;;;;;;;44.78;25.00;;;2.70;99.90;;;;;;4933255;28;95486;-31
2023/03/02 11:16:21;;;;;;;33.47;21.55;;;2.80;99.90;;;;;;4933732;28;95715;-29
2023/03/02 11:18:57;;;;;;;46.75;24.48;;;2.80;99.90;;;;;;4934098;28;94366;-27
2023/03/02 11:21:40;;;;;;;49.10;24.20;;;2.80;99.90;;;;;;4937917;28;93361;-28
2023/03/02 11:24:35;;;;;;;39.20;23.20;;;2.90;99.90;;;;;;4937220;28;93907;-32
2023/03/02 11:27:06;;;;;;;30.10;20.50;;;2.90;99.90;;;;;;4937046;28;94090;-29
2023/03/02 11:29:46;;;;;;;39.30;24.63;;;3.00;99.90;;;;;;4938162;28;93443;-27
2023/03/02 11:32:18;;;;;;;38.75;23.40;;;3.00;99.90;;;;;;4937876;28;92535;-28
2023/03/02 11:34:53;;;;;;;43.80;25.25;;;3.00;99.90;;;;;;4937553;28;95474;-28
2023/03/02 11:37:38;;;;;;;40.08;23.48;;;3.00;99.90;;;;;;4937650;28;94801;-29
2023/03/02 11:40:18;;;;;;;36.95;23.15;;;3.00;99.90;;;;;;4936634;28;93698;-29
2023/03/02 11:42:45;;;;;;;37.28;23.08;;;3.00;99.90;;;;;;4937645;28;94503;-28
2023/03/02 11:45:14;;;;;;;33.25;21.50;;;3.10;99.90;;;;;;4936935;28;94434;-28
2023/03/02 11:48:24;;;;;;;38.50;21.27;;;3.10;99.90;;;;;;4937714;28;94383;-27
2023/03/02 11:51:17;;;;;;;40.67;23.08;;;3.10;99.90;;;;;;4926331;28;92297;-29
2023/03/02 11:54:04;;;;;;;38.85;22.80;;;3.00;99.90;;;;;;4932292;28;95001;-29
2023/03/02 11:56:33;;;;;;;41.03;22.05;;;3.10;99.90;;;;;;4936682;28;94541;-29
2023/03/02 11:59:06;;;;;;;31.83;20.52;;;3.10;99.90;;;;;;4936928;28;94596;-31
2023/03/02 12:01:34;;;;;;;37.17;19.85;;;3.20;99.90;;;;;;4937276;28;93732;-27
2023/03/02 12:04:35;;;;;;;33.75;21.98;;;3.30;99.90;;;;;;4936204;28;94469;-27
2023/03/02 12:07:14;;;;;;;44.70;22.23;;;3.20;99.90;;;;;;4935345;28;95498;-31
2023/03/02 12:09:41;;;;;;;34.55;21.20;;;3.20;99.90;;;;;;4936416;28;95548;-32
2023/03/02 12:12:25;;;;;;;36.28;21.60;;;3.20;99.90;;;;;;4936163;28;93607;-30
2023/03/02 12:14:51;;;;;;;30.27;20.15;;;3.20;99.90;;;;;;4936182;28;94564;-29
2023/03/02 12:17:26;;;;;;;34.40;20.48;;;3.30;99.90;;;;;;4919509;28;94505;-30
2023/03/02 12:20:06;;;;;;;39.08;20.80;;;3.30;99.90;;;;;;4935561;28;94762;-29
2023/03/02 12:22:33;;;;;;;27.83;18.30;;;3.30;99.90;;;;;;4936495;28;94509;-28
2023/03/02 12:25:18;;;;;;;31.55;18.90;;;3.20;99.90;;;;;;4936599;28;92814;-32
2023/03/02 12:27:46;;;;;;;30.13;20.15;;;3.30;99.90;;;;;;4928436;28;94558;-29
2023/03/02 12:30:15;;;;;;;34.30;21.45;;;3.30;99.90;;;;;;4936418;28;94616;-30
2023/03/02 12:32:46;;;;;;;30.52;20.60;;;3.40;99.90;;;;;;4934660;28;95076;-30
2023/03/02 12:35:16;;;;;;;31.58;19.05;;;3.40;99.90;;;;;;4936015;28;94380;-28
2023/03/02 12:37:52;;;;;;;41.30;22.73;;;3.50;99.90;;;;;;4935696;28;97376;-29
2023/03/02 12:40:45;;;;;;;29.60;18.83;;;3.50;99.90;;;;;;4935757;28;93674;-29
2023/03/02 12:43:28;;;;;;;28.88;16.88;;;3.30;99.90;;;;;;4936537;28;94716;-28
2023/03/02 12:46:12;;;;;;;25.42;18.45;;;3.60;99.90;;;;;;4935281;28;92707;-28
2023/03/02 12:48:44;;;;;;;31.65;19.40;;;3.50;99.90;;;;;;4935721;28;94770;-28